sensor_id;sensor_type;location;lat;lon;timestamp;temperature;humidity
65752;DHT22;52486;51.098;13.770;2024-01-11T00:00:14;23.40;50.00
65752;DHT22;52486;51.098;13.770;2024-01-11T00:02:39;21.30;47.80
65752;DHT22;52486;51.098;13.770;2024-01-11T00:05:05;21.10;48.50
65752;DHT22;52486;51.098;13.770;2024-01-11T00:07:32;21.40;47.80
65752;DHT22;52486;51.098;13.770;2024-01-11T00:09:57;21.40;48.50
65752;DHT22;52486;51.098;13.770;2024-01-11T00:12:23;21.40;47.80
65752;DHT22;52486;51.098;13.770;2024-01-11T00:14:48;21.40;48.50
65752;DHT22;52486;51.098;13.770;2024-01-11T00:17:13;21.30;48.40
65752;DHT22;52486;51.098;13.770;2024-01-11T00:19:41;23.70;49.50
65752;DHT22;52486;51.098;13.770;2024-01-11T00:22:06;21.40;47.70
65752;DHT22;52486;51.098;13.770;2024-01-11T00:24:32;23.60;49.50
65752;DHT22;52486;51.098;13.770;2024-01-11T00:26:57;21.40;47.80
65752;DHT22;52486;51.098;13.770;2024-01-11T00:29:23;22.40;48.90
65752;DHT22;52486;51.098;13.770;2024-01-11T00:31:48;23.60;49.30
65752;DHT22;52486;51.098;13.770;2024-01-11T00:34:14;21.60;48.20
65752;DHT22;52486;51.098;13.770;2024-01-11T00:36:39;21.70;48.30
65752;DHT22;52486;51.098;13.770;2024-01-11T00:39:05;23.80;49.40
65752;DHT22;52486;51.098;13.770;2024-01-11T00:41:30;23.10;49.00
65752;DHT22;52486;51.098;13.770;2024-01-11T00:43:56;24.60;49.80
65752;DHT22;52486;51.098;13.770;2024-01-11T00:46:21;21.50;47.50
65752;DHT22;52486;51.098;13.770;2024-01-11T00:48:47;21.50;47.50
65752;DHT22;52486;51.098;13.770;2024-01-11T00:51:13;21.50;48.00
65752;DHT22;52486;51.098;13.770;2024-01-11T00:53:38;23.50;49.20
65752;DHT22;52486;51.098;13.770;2024-01-11T00:56:04;22.60;48.70
65752;DHT22;52486;51.098;13.770;2024-01-11T00:58:29;21.50;48.00
65752;DHT22;52486;51.098;13.770;2024-01-11T01:00:55;23.30;49.00
65752;DHT22;52486;51.098;13.770;2024-01-11T01:03:21;21.30;48.10
65752;DHT22;52486;51.098;13.770;2024-01-11T01:05:46;21.60;48.00
65752;DHT22;52486;51.098;13.770;2024-01-11T01:08:12;21.60;47.40
65752;DHT22;52486;51.098;13.770;2024-01-11T01:10:38;21.40;47.90
65752;DHT22;52486;51.098;13.770;2024-01-11T01:13:03;24.40;49.60
65752;DHT22;52486;51.098;13.770;2024-01-11T01:15:29;23.90;49.30
65752;DHT22;52486;51.098;13.770;2024-01-11T01:17:54;21.70;48.00
65752;DHT22;52486;51.098;13.770;2024-01-11T01:20:20;21.60;48.10
65752;DHT22;52486;51.098;13.770;2024-01-11T01:22:45;21.50;47.30
65752;DHT22;52486;51.098;13.770;2024-01-11T01:25:11;21.50;47.90
65752;DHT22;52486;51.098;13.770;2024-01-11T01:27:36;21.60;48.00
65752;DHT22;52486;51.098;13.770;2024-01-11T01:30:02;21.40;47.10
65752;DHT22;52486;51.098;13.770;2024-01-11T01:32:28;21.60;47.60
65752;DHT22;52486;51.098;13.770;2024-01-11T01:34:53;21.70;48.00
65752;DHT22;52486;51.098;13.770;2024-01-11T01:37:19;21.20;47.70
65752;DHT22;52486;51.098;13.770;2024-01-11T01:39:44;21.70;48.00
65752;DHT22;52486;51.098;13.770;2024-01-11T01:42:10;22.30;48.30
65752;DHT22;52486;51.098;13.770;2024-01-11T01:44:35;23.40;48.80
65752;DHT22;52486;51.098;13.770;2024-01-11T01:47:01;22.50;48.40
65752;DHT22;52486;51.098;13.770;2024-01-11T01:49:27;21.80;47.90
65752;DHT22;52486;51.098;13.770;2024-01-11T01:51:53;21.40;47.10
65752;DHT22;52486;51.098;13.770;2024-01-11T01:54:19;21.60;47.60
65752;DHT22;52486;51.098;13.770;2024-01-11T01:56:45;21.60;47.80
65752;DHT22;52486;51.098;13.770;2024-01-11T01:59:10;22.10;48.20
65752;DHT22;52486;51.098;13.770;2024-01-11T02:01:36;21.40;47.60
65752;DHT22;52486;51.098;13.770;2024-01-11T02:04:02;21.70;47.90
65752;DHT22;52486;51.098;13.770;2024-01-11T02:06:28;21.50;47.80
65752;DHT22;52486;51.098;13.770;2024-01-11T02:08:54;22.30;48.20
65752;DHT22;52486;51.098;13.770;2024-01-11T02:11:21;21.60;47.70
65752;DHT22;52486;51.098;13.770;2024-01-11T02:13:49;21.60;47.70
65752;DHT22;52486;51.098;13.770;2024-01-11T02:16:15;21.50;47.60
65752;DHT22;52486;51.098;13.770;2024-01-11T02:18:40;23.70;48.90
65752;DHT22;52486;51.098;13.770;2024-01-11T02:21:06;21.70;47.90
65752;DHT22;52486;51.098;13.770;2024-01-11T02:23:34;21.60;47.70
65752;DHT22;52486;51.098;13.770;2024-01-11T02:26:01;22.40;48.10
65752;DHT22;52486;51.098;13.770;2024-01-11T02:28:27;21.70;47.90
65752;DHT22;52486;51.098;13.770;2024-01-11T02:30:52;21.80;47.90
65752;DHT22;52486;51.098;13.770;2024-01-11T02:33:18;21.30;47.70
65752;DHT22;52486;51.098;13.770;2024-01-11T02:35:44;22.30;47.90
65752;DHT22;52486;51.098;13.770;2024-01-11T02:38:09;22.90;48.50
65752;DHT22;52486;51.098;13.770;2024-01-11T02:40:35;23.70;48.90
65752;DHT22;52486;51.098;13.770;2024-01-11T02:43:20;24.10;49.10
65752;DHT22;52486;51.098;13.770;2024-01-11T02:45:45;21.50;45.30
65752;DHT22;52486;51.098;13.770;2024-01-11T02:48:11;21.60;47.70
65752;DHT22;52486;51.098;13.770;2024-01-11T02:50:36;21.60;47.70
65752;DHT22;52486;51.098;13.770;2024-01-11T02:53:02;21.40;47.70
65752;DHT22;52486;51.098;13.770;2024-01-11T02:55:28;21.40;47.20
65752;DHT22;52486;51.098;13.770;2024-01-11T02:57:53;21.60;47.10
65752;DHT22;52486;51.098;13.770;2024-01-11T03:00:19;23.30;48.80
65752;DHT22;52486;51.098;13.770;2024-01-11T03:02:44;21.50;47.70
65752;DHT22;52486;51.098;13.770;2024-01-11T03:05:10;21.60;47.80
65752;DHT22;52486;51.098;13.770;2024-01-11T03:07:36;21.50;47.70
65752;DHT22;52486;51.098;13.770;2024-01-11T03:10:01;22.80;48.50
65752;DHT22;52486;51.098;13.770;2024-01-11T03:12:27;22.50;48.20
65752;DHT22;52486;51.098;13.770;2024-01-11T03:14:52;21.50;47.80
65752;DHT22;52486;51.098;13.770;2024-01-11T03:17:18;21.60;47.60
65752;DHT22;52486;51.098;13.770;2024-01-11T03:19:43;21.30;47.60
65752;DHT22;52486;51.098;13.770;2024-01-11T03:22:09;21.40;47.60
65752;DHT22;52486;51.098;13.770;2024-01-11T03:24:37;21.40;47.70
65752;DHT22;52486;51.098;13.770;2024-01-11T03:27:04;21.20;45.20
65752;DHT22;52486;51.098;13.770;2024-01-11T03:29:31;22.90;48.20
65752;DHT22;52486;51.098;13.770;2024-01-11T03:31:56;21.30;46.90
65752;DHT22;52486;51.098;13.770;2024-01-11T03:34:22;21.50;47.10
65752;DHT22;52486;51.098;13.770;2024-01-11T03:36:47;21.30;47.60
65752;DHT22;52486;51.098;13.770;2024-01-11T03:39:13;21.40;47.60
65752;DHT22;52486;51.098;13.770;2024-01-11T03:41:42;24.40;49.30
65752;DHT22;52486;51.098;13.770;2024-01-11T03:44:08;21.40;47.50
65752;DHT22;52486;51.098;13.770;2024-01-11T03:46:34;22.50;48.20
65752;DHT22;52486;51.098;13.770;2024-01-11T03:48:59;21.50;47.00
65752;DHT22;52486;51.098;13.770;2024-01-11T03:51:25;22.10;48.20
65752;DHT22;52486;51.098;13.770;2024-01-11T03:53:50;21.60;47.70
65752;DHT22;52486;51.098;13.770;2024-01-11T03:56:16;21.40;47.70
65752;DHT22;52486;51.098;13.770;2024-01-11T03:58:41;21.40;47.80
65752;DHT22;52486;51.098;13.770;2024-01-11T04:01:10;21.40;47.50
65752;DHT22;52486;51.098;13.770;2024-01-11T04:03:35;21.60;47.70
65752;DHT22;52486;51.098;13.770;2024-01-11T04:06:01;21.40;47.50
65752;DHT22;52486;51.098;13.770;2024-01-11T04:08:26;21.40;47.60
65752;DHT22;52486;51.098;13.770;2024-01-11T04:10:52;21.40;47.60
65752;DHT22;52486;51.098;13.770;2024-01-11T04:13:17;22.70;48.40
65752;DHT22;52486;51.098;13.770;2024-01-11T04:15:43;21.40;46.90
65752;DHT22;52486;51.098;13.770;2024-01-11T04:18:08;22.60;48.30
65752;DHT22;52486;51.098;13.770;2024-01-11T04:20:34;24.30;49.20
65752;DHT22;52486;51.098;13.770;2024-01-11T04:22:59;21.40;47.10
65752;DHT22;52486;51.098;13.770;2024-01-11T04:25:25;24.00;49.10
65752;DHT22;52486;51.098;13.770;2024-01-11T04:27:50;21.60;47.80
65752;DHT22;52486;51.098;13.770;2024-01-11T04:30:16;21.60;47.80
65752;DHT22;52486;51.098;13.770;2024-01-11T04:32:41;21.40;47.70
65752;DHT22;52486;51.098;13.770;2024-01-11T04:35:07;21.50;47.80
65752;DHT22;52486;51.098;13.770;2024-01-11T04:37:32;21.60;47.50
65752;DHT22;52486;51.098;13.770;2024-01-11T04:39:59;21.40;47.50
65752;DHT22;52486;51.098;13.770;2024-01-11T04:42:26;22.90;48.50
65752;DHT22;52486;51.098;13.770;2024-01-11T04:44:52;24.10;49.00
65752;DHT22;52486;51.098;13.770;2024-01-11T04:47:17;21.40;47.60
65752;DHT22;52486;51.098;13.770;2024-01-11T04:49:43;21.60;47.70
65752;DHT22;52486;51.098;13.770;2024-01-11T04:52:08;21.70;47.90
65752;DHT22;52486;51.098;13.770;2024-01-11T04:54:34;21.40;46.90
65752;DHT22;52486;51.098;13.770;2024-01-11T04:56:59;22.00;47.90
65752;DHT22;52486;51.098;13.770;2024-01-11T04:59:25;21.30;47.60
65752;DHT22;52486;51.098;13.770;2024-01-11T05:01:50;21.50;47.60
65752;DHT22;52486;51.098;13.770;2024-01-11T05:04:16;21.50;47.00
65752;DHT22;52486;51.098;13.770;2024-01-11T05:06:41;23.30;48.60
65752;DHT22;52486;51.098;13.770;2024-01-11T05:09:07;21.40;47.20
65752;DHT22;52486;51.098;13.770;2024-01-11T05:11:33;21.50;47.80
65752;DHT22;52486;51.098;13.770;2024-01-11T05:13:58;21.40;47.50
65752;DHT22;52486;51.098;13.770;2024-01-11T05:16:24;21.20;47.50
65752;DHT22;52486;51.098;13.770;2024-01-11T05:18:50;21.50;47.60
65752;DHT22;52486;51.098;13.770;2024-01-11T05:21:16;24.00;48.80
65752;DHT22;52486;51.098;13.770;2024-01-11T05:23:42;21.50;47.20
65752;DHT22;52486;51.098;13.770;2024-01-11T05:26:08;21.90;47.80
65752;DHT22;52486;51.098;13.770;2024-01-11T05:28:34;21.70;47.70
65752;DHT22;52486;51.098;13.770;2024-01-11T05:31:00;21.40;46.90
65752;DHT22;52486;51.098;13.770;2024-01-11T05:33:25;22.60;48.10
65752;DHT22;52486;51.098;13.770;2024-01-11T05:35:51;21.70;47.80
65752;DHT22;52486;51.098;13.770;2024-01-11T05:38:19;21.40;47.00
65752;DHT22;52486;51.098;13.770;2024-01-11T05:40:44;21.60;47.70
65752;DHT22;52486;51.098;13.770;2024-01-11T05:43:10;21.60;47.70
65752;DHT22;52486;51.098;13.770;2024-01-11T05:45:35;22.90;48.60
65752;DHT22;52486;51.098;13.770;2024-01-11T05:48:01;21.60;47.70
65752;DHT22;52486;51.098;13.770;2024-01-11T05:50:26;21.60;47.80
65752;DHT22;52486;51.098;13.770;2024-01-11T05:52:52;21.40;47.60
65752;DHT22;52486;51.098;13.770;2024-01-11T05:55:19;23.30;48.40
65752;DHT22;52486;51.098;13.770;2024-01-11T05:57:44;21.40;47.60
65752;DHT22;52486;51.098;13.770;2024-01-11T06:00:11;21.40;47.10
65752;DHT22;52486;51.098;13.770;2024-01-11T06:02:36;21.40;47.10
65752;DHT22;52486;51.098;13.770;2024-01-11T06:05:02;22.00;48.00
65752;DHT22;52486;51.098;13.770;2024-01-11T06:07:27;21.30;46.80
65752;DHT22;52486;51.098;13.770;2024-01-11T06:09:54;23.40;48.50
65752;DHT22;52486;51.098;13.770;2024-01-11T06:12:20;24.20;48.80
65752;DHT22;52486;51.098;13.770;2024-01-11T06:14:46;21.50;47.40
65752;DHT22;52486;51.098;13.770;2024-01-11T06:17:11;21.50;47.70
65752;DHT22;52486;51.098;13.770;2024-01-11T06:19:37;21.20;46.80
65752;DHT22;52486;51.098;13.770;2024-01-11T06:22:03;21.40;47.40
65752;DHT22;52486;51.098;13.770;2024-01-11T06:24:29;21.60;47.40
65752;DHT22;52486;51.098;13.770;2024-01-11T06:26:55;23.40;48.70
65752;DHT22;52486;51.098;13.770;2024-01-11T06:29:20;21.20;47.60
65752;DHT22;52486;51.098;13.770;2024-01-11T06:31:46;21.30;46.80
65752;DHT22;52486;51.098;13.770;2024-01-11T06:34:11;21.50;47.50
65752;DHT22;52486;51.098;13.770;2024-01-11T06:36:37;21.50;47.50
65752;DHT22;52486;51.098;13.770;2024-01-11T06:39:02;21.60;47.60
65752;DHT22;52486;51.098;13.770;2024-01-11T06:41:29;21.20;47.20
65752;DHT22;52486;51.098;13.770;2024-01-11T06:43:55;21.60;47.50
65752;DHT22;52486;51.098;13.770;2024-01-11T06:46:20;21.40;47.50
65752;DHT22;52486;51.098;13.770;2024-01-11T06:48:47;23.60;45.80
65752;DHT22;52486;51.098;13.770;2024-01-11T06:51:15;21.10;44.60
65752;DHT22;52486;51.098;13.770;2024-01-11T06:53:41;21.10;41.40
65752;DHT22;52486;51.098;13.770;2024-01-11T06:56:17;20.50;43.80
65752;DHT22;52486;51.098;13.770;2024-01-11T06:58:43;20.20;42.40
65752;DHT22;52486;51.098;13.770;2024-01-11T07:01:09;20.30;44.90
65752;DHT22;52486;51.098;13.770;2024-01-11T07:03:34;20.00;45.60
65752;DHT22;52486;51.098;13.770;2024-01-11T07:06:00;19.70;45.80
65752;DHT22;52486;51.098;13.770;2024-01-11T07:08:25;19.40;45.70
65752;DHT22;52486;51.098;13.770;2024-01-11T07:10:51;19.30;45.30
65752;DHT22;52486;51.098;13.770;2024-01-11T07:13:16;19.30;48.80
65752;DHT22;52486;51.098;13.770;2024-01-11T07:15:42;21.10;50.70
65752;DHT22;52486;51.098;13.770;2024-01-11T07:18:08;19.60;50.20
65752;DHT22;52486;51.098;13.770;2024-01-11T07:20:33;19.90;50.60
65752;DHT22;52486;51.098;13.770;2024-01-11T07:22:59;19.70;50.20
65752;DHT22;52486;51.098;13.770;2024-01-11T07:25:25;19.90;49.80
65752;DHT22;52486;51.098;13.770;2024-01-11T07:27:52;20.10;49.60
65752;DHT22;52486;51.098;13.770;2024-01-11T07:30:17;20.10;49.70
65752;DHT22;52486;51.098;13.770;2024-01-11T07:32:45;20.80;48.80
65752;DHT22;52486;51.098;13.770;2024-01-11T07:35:11;20.60;50.00
65752;DHT22;52486;51.098;13.770;2024-01-11T07:37:38;20.10;48.90
65752;DHT22;52486;51.098;13.770;2024-01-11T07:40:03;20.30;49.40
65752;DHT22;52486;51.098;13.770;2024-01-11T07:42:29;20.40;49.00
65752;DHT22;52486;51.098;13.770;2024-01-11T07:44:55;22.10;50.50
65752;DHT22;52486;51.098;13.770;2024-01-11T07:47:20;20.20;49.50
65752;DHT22;52486;51.098;13.770;2024-01-11T07:49:46;20.40;48.80
65752;DHT22;52486;51.098;13.770;2024-01-11T07:52:11;20.40;49.40
65752;DHT22;52486;51.098;13.770;2024-01-11T07:54:37;21.30;50.00
65752;DHT22;52486;51.098;13.770;2024-01-11T07:57:03;20.40;49.20
65752;DHT22;52486;51.098;13.770;2024-01-11T07:59:34;20.50;48.70
65752;DHT22;52486;51.098;13.770;2024-01-11T08:02:03;20.90;47.30
65752;DHT22;52486;51.098;13.770;2024-01-11T08:04:29;20.80;49.60
65752;DHT22;52486;51.098;13.770;2024-01-11T08:06:54;20.70;48.60
65752;DHT22;52486;51.098;13.770;2024-01-11T08:09:20;20.60;48.70
65752;DHT22;52486;51.098;13.770;2024-01-11T08:11:45;20.50;48.60
65752;DHT22;52486;51.098;13.770;2024-01-11T08:14:11;20.50;49.10
65752;DHT22;52486;51.098;13.770;2024-01-11T08:16:37;23.60;51.10
65752;DHT22;52486;51.098;13.770;2024-01-11T08:19:03;20.70;49.40
65752;DHT22;52486;51.098;13.770;2024-01-11T08:21:29;20.60;50.40
65752;DHT22;52486;51.098;13.770;2024-01-11T08:23:54;20.60;49.50
65752;DHT22;52486;51.098;13.770;2024-01-11T08:26:20;21.80;50.60
65752;DHT22;52486;51.098;13.770;2024-01-11T08:28:47;20.90;49.60
65752;DHT22;52486;51.098;13.770;2024-01-11T08:31:13;22.40;50.90
65752;DHT22;52486;51.098;13.770;2024-01-11T08:33:38;23.60;51.30
65752;DHT22;52486;51.098;13.770;2024-01-11T08:36:04;21.10;50.20
65752;DHT22;52486;51.098;13.770;2024-01-11T08:38:30;21.20;49.90
65752;DHT22;52486;51.098;13.770;2024-01-11T08:40:55;22.50;50.80
65752;DHT22;52486;51.098;13.770;2024-01-11T08:43:21;23.90;51.30
65752;DHT22;52486;51.098;13.770;2024-01-11T08:45:46;21.30;49.70
65752;DHT22;52486;51.098;13.770;2024-01-11T08:48:12;21.50;48.90
65752;DHT22;52486;51.098;13.770;2024-01-11T08:50:38;21.40;49.50
65752;DHT22;52486;51.098;13.770;2024-01-11T08:53:04;21.70;49.80
65752;DHT22;52486;51.098;13.770;2024-01-11T08:55:29;21.50;49.50
65752;DHT22;52486;51.098;13.770;2024-01-11T08:57:55;21.70;49.70
65752;DHT22;52486;51.098;13.770;2024-01-11T09:00:20;21.60;50.00
65752;DHT22;52486;51.098;13.770;2024-01-11T09:02:46;21.70;50.10
65752;DHT22;52486;51.098;13.770;2024-01-11T09:05:13;21.90;50.00
65752;DHT22;52486;51.098;13.770;2024-01-11T09:07:39;24.10;51.30
65752;DHT22;52486;51.098;13.770;2024-01-11T09:10:05;22.00;50.10
65752;DHT22;52486;51.098;13.770;2024-01-11T09:12:34;22.00;49.30
65752;DHT22;52486;51.098;13.770;2024-01-11T09:14:59;23.20;50.40
65752;DHT22;52486;51.098;13.770;2024-01-11T09:17:25;22.10;49.80
65752;DHT22;52486;51.098;13.770;2024-01-11T09:19:51;24.70;52.70
65752;DHT22;52486;51.098;13.770;2024-01-11T09:22:16;23.50;50.70
65752;DHT22;52486;51.098;13.770;2024-01-11T09:24:42;22.30;50.00
65752;DHT22;52486;51.098;13.770;2024-01-11T09:27:07;22.30;49.20
65752;DHT22;52486;51.098;13.770;2024-01-11T09:29:32;25.20;51.60
65752;DHT22;52486;51.098;13.770;2024-01-11T09:31:58;22.40;49.80
65752;DHT22;52486;51.098;13.770;2024-01-11T09:34:24;22.20;48.80
65752;DHT22;52486;51.098;13.770;2024-01-11T09:36:50;22.20;49.70
65752;DHT22;52486;51.098;13.770;2024-01-11T09:39:15;24.30;51.00
65752;DHT22;52486;51.098;13.770;2024-01-11T09:41:42;22.40;49.50
65752;DHT22;52486;51.098;13.770;2024-01-11T09:44:12;19.30;48.20
65752;DHT22;52486;51.098;13.770;2024-01-11T09:46:38;22.60;49.60
65752;DHT22;52486;51.098;13.770;2024-01-11T09:49:03;22.30;49.40
65752;DHT22;52486;51.098;13.770;2024-01-11T09:51:29;22.40;49.30
65752;DHT22;52486;51.098;13.770;2024-01-11T09:53:55;22.40;49.60
65752;DHT22;52486;51.098;13.770;2024-01-11T09:56:23;22.80;49.50
65752;DHT22;52486;51.098;13.770;2024-01-11T09:58:50;22.60;49.60
65752;DHT22;52486;51.098;13.770;2024-01-11T10:01:16;24.40;50.60
65752;DHT22;52486;51.098;13.770;2024-01-11T10:03:42;25.00;50.70
65752;DHT22;52486;51.098;13.770;2024-01-11T10:06:07;22.70;49.60
65752;DHT22;52486;51.098;13.770;2024-01-11T10:08:34;23.70;50.00
65752;DHT22;52486;51.098;13.770;2024-01-11T10:11:00;22.90;49.50
65752;DHT22;52486;51.098;13.770;2024-01-11T10:13:27;22.30;49.60
65752;DHT22;52486;51.098;13.770;2024-01-11T10:15:53;22.60;49.30
65752;DHT22;52486;51.098;13.770;2024-01-11T10:18:22;23.00;50.10
65752;DHT22;52486;51.098;13.770;2024-01-11T10:20:48;22.50;49.50
65752;DHT22;52486;51.098;13.770;2024-01-11T10:23:14;22.80;49.90
65752;DHT22;52486;51.098;13.770;2024-01-11T10:25:39;22.70;49.80
65752;DHT22;52486;51.098;13.770;2024-01-11T10:28:07;23.70;50.20
65752;DHT22;52486;51.098;13.770;2024-01-11T10:30:33;25.60;51.50
65752;DHT22;52486;51.098;13.770;2024-01-11T10:32:59;22.80;49.50
65752;DHT22;52486;51.098;13.770;2024-01-11T10:35:28;23.00;50.10
65752;DHT22;52486;51.098;13.770;2024-01-11T10:37:53;22.90;49.20
65752;DHT22;52486;51.098;13.770;2024-01-11T10:40:19;23.20;49.40
65752;DHT22;52486;51.098;13.770;2024-01-11T10:42:49;23.10;49.00
65752;DHT22;52486;51.098;13.770;2024-01-11T10:45:17;23.00;49.00
65752;DHT22;52486;51.098;13.770;2024-01-11T10:47:53;23.40;49.00
65752;DHT22;52486;51.098;13.770;2024-01-11T10:50:19;23.30;48.80
65752;DHT22;52486;51.098;13.770;2024-01-11T10:53:31;23.60;48.60
65752;DHT22;52486;51.098;13.770;2024-01-11T10:55:32;23.20;48.00
65752;DHT22;52486;51.098;13.770;2024-01-11T10:57:59;26.30;50.40
65752;DHT22;52486;51.098;13.770;2024-01-11T11:00:25;23.30;48.70
65752;DHT22;52486;51.098;13.770;2024-01-11T11:02:51;23.40;48.60
65752;DHT22;52486;51.098;13.770;2024-01-11T11:05:19;23.40;48.70
65752;DHT22;52486;51.098;13.770;2024-01-11T11:07:46;23.50;48.70
65752;DHT22;52486;51.098;13.770;2024-01-11T11:10:13;24.50;49.10
65752;DHT22;52486;51.098;13.770;2024-01-11T11:12:39;23.60;48.50
65752;DHT22;52486;51.098;13.770;2024-01-11T11:15:05;23.80;48.80
65752;DHT22;52486;51.098;13.770;2024-01-11T11:17:32;23.60;48.10
65752;DHT22;52486;51.098;13.770;2024-01-11T11:19:57;24.10;48.90
65752;DHT22;52486;51.098;13.770;2024-01-11T11:22:26;23.80;48.40
65752;DHT22;52486;51.098;13.770;2024-01-11T11:25:02;23.90;48.50
65752;DHT22;52486;51.098;13.770;2024-01-11T11:27:28;24.30;48.70
65752;DHT22;52486;51.098;13.770;2024-01-11T11:29:53;23.70;48.50
65752;DHT22;52486;51.098;13.770;2024-01-11T11:32:19;24.10;46.40
65752;DHT22;52486;51.098;13.770;2024-01-11T11:34:59;23.40;46.20
65752;DHT22;52486;51.098;13.770;2024-01-11T11:37:25;24.60;45.70
65752;DHT22;52486;51.098;13.770;2024-01-11T11:39:50;22.20;45.90
65752;DHT22;52486;51.098;13.770;2024-01-11T11:42:16;22.60;46.20
65752;DHT22;52486;51.098;13.770;2024-01-11T11:44:48;22.30;45.80
65752;DHT22;52486;51.098;13.770;2024-01-11T11:47:20;22.50;45.40
65752;DHT22;52486;51.098;13.770;2024-01-11T11:50:02;22.50;45.80
65752;DHT22;52486;51.098;13.770;2024-01-11T11:52:29;22.50;46.30
65752;DHT22;52486;51.098;13.770;2024-01-11T11:54:54;22.10;46.40
65752;DHT22;52486;51.098;13.770;2024-01-11T11:57:21;22.00;47.60
65752;DHT22;52486;51.098;13.770;2024-01-11T11:59:48;22.00;47.60
65752;DHT22;52486;51.098;13.770;2024-01-11T12:02:16;21.90;47.60
65752;DHT22;52486;51.098;13.770;2024-01-11T12:04:48;22.10;47.00
65752;DHT22;52486;51.098;13.770;2024-01-11T12:07:14;22.00;47.10
65752;DHT22;52486;51.098;13.770;2024-01-11T12:09:40;22.10;48.20
65752;DHT22;52486;51.098;13.770;2024-01-11T12:12:05;22.40;51.40
65752;DHT22;52486;51.098;13.770;2024-01-11T12:14:31;22.10;48.70
65752;DHT22;52486;51.098;13.770;2024-01-11T12:16:57;22.20;49.50
65752;DHT22;52486;51.098;13.770;2024-01-11T12:19:23;22.20;47.50
65752;DHT22;52486;51.098;13.770;2024-01-11T12:21:49;22.00;45.50
65752;DHT22;52486;51.098;13.770;2024-01-11T12:24:15;22.20;47.00
65752;DHT22;52486;51.098;13.770;2024-01-11T12:26:41;24.90;48.30
65752;DHT22;52486;51.098;13.770;2024-01-11T12:29:07;21.80;46.50
65752;DHT22;52486;51.098;13.770;2024-01-11T12:31:34;25.00;49.30
65752;DHT22;52486;51.098;13.770;2024-01-11T12:34:01;21.90;48.40
65752;DHT22;52486;51.098;13.770;2024-01-11T12:36:26;22.20;47.90
65752;DHT22;52486;51.098;13.770;2024-01-11T12:38:53;22.00;46.80
65752;DHT22;52486;51.098;13.770;2024-01-11T12:41:19;22.20;47.20
65752;DHT22;52486;51.098;13.770;2024-01-11T12:43:44;22.10;47.00
65752;DHT22;52486;51.098;13.770;2024-01-11T12:46:10;22.00;46.60
65752;DHT22;52486;51.098;13.770;2024-01-11T12:48:35;23.20;45.80
65752;DHT22;52486;51.098;13.770;2024-01-11T12:51:01;21.00;44.90
65752;DHT22;52486;51.098;13.770;2024-01-11T12:53:28;23.60;47.60
65752;DHT22;52486;51.098;13.770;2024-01-11T12:56:04;23.40;48.80
65752;DHT22;52486;51.098;13.770;2024-01-11T12:58:36;21.00;44.10
65752;DHT22;52486;51.098;13.770;2024-01-11T13:01:01;21.00;45.90
65752;DHT22;52486;51.098;13.770;2024-01-11T13:03:28;21.20;48.00
65752;DHT22;52486;51.098;13.770;2024-01-11T13:05:53;21.20;48.80
65752;DHT22;52486;51.098;13.770;2024-01-11T13:08:19;21.70;49.80
65752;DHT22;52486;51.098;13.770;2024-01-11T13:10:44;21.60;49.10
65752;DHT22;52486;51.098;13.770;2024-01-11T13:13:12;23.80;50.60
65752;DHT22;52486;51.098;13.770;2024-01-11T13:15:38;21.90;49.60
65752;DHT22;52486;51.098;13.770;2024-01-11T13:18:04;21.90;49.40
65752;DHT22;52486;51.098;13.770;2024-01-11T13:20:30;21.90;48.90
65752;DHT22;52486;51.098;13.770;2024-01-11T13:23:12;24.00;51.00
65752;DHT22;52486;51.098;13.770;2024-01-11T13:25:41;22.30;47.70
65752;DHT22;52486;51.098;13.770;2024-01-11T13:28:07;23.90;50.80
65752;DHT22;52486;51.098;13.770;2024-01-11T13:30:33;22.30;49.70
65752;DHT22;52486;51.098;13.770;2024-01-11T13:32:58;22.40;49.80
65752;DHT22;52486;51.098;13.770;2024-01-11T13:35:24;22.30;49.90
65752;DHT22;52486;51.098;13.770;2024-01-11T13:37:50;24.70;51.40
65752;DHT22;52486;51.098;13.770;2024-01-11T13:40:15;22.40;50.20
65752;DHT22;52486;51.098;13.770;2024-01-11T13:42:41;22.80;50.50
65752;DHT22;52486;51.098;13.770;2024-01-11T13:45:06;22.50;50.30
65752;DHT22;52486;51.098;13.770;2024-01-11T13:47:37;22.70;49.70
65752;DHT22;52486;51.098;13.770;2024-01-11T13:50:02;22.60;47.90
65752;DHT22;52486;51.098;13.770;2024-01-11T13:52:28;22.70;49.90
65752;DHT22;52486;51.098;13.770;2024-01-11T13:54:54;22.70;50.00
65752;DHT22;52486;51.098;13.770;2024-01-11T13:57:20;22.90;49.90
65752;DHT22;52486;51.098;13.770;2024-01-11T13:59:46;22.90;50.40
65752;DHT22;52486;51.098;13.770;2024-01-11T14:02:11;23.10;50.40
65752;DHT22;52486;51.098;13.770;2024-01-11T14:04:37;23.00;50.50
65752;DHT22;52486;51.098;13.770;2024-01-11T14:07:03;23.20;50.50
65752;DHT22;52486;51.098;13.770;2024-01-11T14:09:29;22.90;49.90
65752;DHT22;52486;51.098;13.770;2024-01-11T14:11:54;23.10;49.60
65752;DHT22;52486;51.098;13.770;2024-01-11T14:14:20;23.10;50.10
65752;DHT22;52486;51.098;13.770;2024-01-11T14:16:46;21.50;48.70
65752;DHT22;52486;51.098;13.770;2024-01-11T14:19:11;23.40;49.90
65752;DHT22;52486;51.098;13.770;2024-01-11T14:21:37;23.10;50.20
65752;DHT22;52486;51.098;13.770;2024-01-11T14:24:03;23.20;50.10
65752;DHT22;52486;51.098;13.770;2024-01-11T14:26:29;23.00;49.60
65752;DHT22;52486;51.098;13.770;2024-01-11T14:28:54;23.30;50.10
65752;DHT22;52486;51.098;13.770;2024-01-11T14:31:20;23.20;50.00
65752;DHT22;52486;51.098;13.770;2024-01-11T14:33:45;23.40;49.60
65752;DHT22;52486;51.098;13.770;2024-01-11T14:36:11;23.20;49.90
65752;DHT22;52486;51.098;13.770;2024-01-11T14:38:36;23.20;50.00
65752;DHT22;52486;51.098;13.770;2024-01-11T14:41:02;23.40;50.20
65752;DHT22;52486;51.098;13.770;2024-01-11T14:43:28;23.40;49.70
65752;DHT22;52486;51.098;13.770;2024-01-11T14:45:53;24.90;50.90
65752;DHT22;52486;51.098;13.770;2024-01-11T14:48:19;24.70;50.80
65752;DHT22;52486;51.098;13.770;2024-01-11T14:50:45;23.40;50.00
65752;DHT22;52486;51.098;13.770;2024-01-11T14:53:10;23.30;50.10
65752;DHT22;52486;51.098;13.770;2024-01-11T14:55:36;23.30;49.30
65752;DHT22;52486;51.098;13.770;2024-01-11T14:58:02;24.00;50.20
65752;DHT22;52486;51.098;13.770;2024-01-11T15:00:28;23.30;49.80
65752;DHT22;52486;51.098;13.770;2024-01-11T15:02:53;23.70;50.20
65752;DHT22;52486;51.098;13.770;2024-01-11T15:05:19;23.40;50.40
65752;DHT22;52486;51.098;13.770;2024-01-11T15:07:44;26.50;52.00